sensor_id;sensor_type;location;lat;lon;timestamp;P1;durP1;ratioP1;P2;durP2;ratioP2
6282;SDS011;3174;53.486;9.568;2023-04-24T00:00:01;4.30;;;2.43;;
6282;SDS011;3174;53.486;9.568;2023-04-24T00:02:31;2.67;;;2.13;;
6282;SDS011;3174;53.486;9.568;2023-04-24T00:05:01;4.07;;;2.50;;
6282;SDS011;3174;53.486;9.568;2023-04-24T00:07:30;2.53;;;2.10;;
6282;SDS011;3174;53.486;9.568;2023-04-24T00:09:58;2.50;;;2.20;;
6282;SDS011;3174;53.486;9.568;2023-04-24T00:12:26;2.67;;;2.20;;
6282;SDS011;3174;53.486;9.568;2023-04-24T00:14:54;3.67;;;2.87;;
6282;SDS011;3174;53.486;9.568;2023-04-24T00:17:22;3.30;;;2.77;;
6282;SDS011;3174;53.486;9.568;2023-04-24T00:19:50;3.80;;;3.30;;
6282;SDS011;3174;53.486;9.568;2023-04-24T00:22:24;4.63;;;3.60;;
6282;SDS011;3174;53.486;9.568;2023-04-24T00:24:54;4.43;;;3.23;;
6282;SDS011;3174;53.486;9.568;2023-04-24T00:27:22;6.53;;;3.87;;
6282;SDS011;3174;53.486;9.568;2023-04-24T00:29:50;4.60;;;3.07;;
6282;SDS011;3174;53.486;9.568;2023-04-24T00:32:18;4.10;;;3.27;;
6282;SDS011;3174;53.486;9.568;2023-04-24T00:34:46;3.97;;;2.70;;
6282;SDS011;3174;53.486;9.568;2023-04-24T00:37:14;4.27;;;3.13;;
6282;SDS011;3174;53.486;9.568;2023-04-24T00:39:42;7.37;;;3.83;;
6282;SDS011;3174;53.486;9.568;2023-04-24T00:42:12;4.43;;;3.67;;
6282;SDS011;3174;53.486;9.568;2023-04-24T00:44:40;6.70;;;4.10;;
6282;SDS011;3174;53.486;9.568;2023-04-24T00:47:08;5.00;;;3.50;;
6282;SDS011;3174;53.486;9.568;2023-04-24T00:49:37;6.23;;;3.63;;
6282;SDS011;3174;53.486;9.568;2023-04-24T00:52:04;4.03;;;3.37;;
6282;SDS011;3174;53.486;9.568;2023-04-24T00:54:35;4.77;;;3.90;;
6282;SDS011;3174;53.486;9.568;2023-04-24T00:57:03;5.67;;;3.53;;
6282;SDS011;3174;53.486;9.568;2023-04-24T00:59:32;5.60;;;4.10;;
6282;SDS011;3174;53.486;9.568;2023-04-24T01:02:00;5.70;;;4.00;;
6282;SDS011;3174;53.486;9.568;2023-04-24T01:04:28;4.23;;;3.43;;
6282;SDS011;3174;53.486;9.568;2023-04-24T01:06:56;4.67;;;3.93;;
6282;SDS011;3174;53.486;9.568;2023-04-24T01:09:24;5.70;;;3.73;;
6282;SDS011;3174;53.486;9.568;2023-04-24T01:11:52;5.07;;;3.83;;
6282;SDS011;3174;53.486;9.568;2023-04-24T01:14:20;4.90;;;3.43;;
6282;SDS011;3174;53.486;9.568;2023-04-24T01:16:50;4.90;;;3.73;;
6282;SDS011;3174;53.486;9.568;2023-04-24T01:19:18;6.77;;;3.93;;
6282;SDS011;3174;53.486;9.568;2023-04-24T01:21:46;5.50;;;3.50;;
6282;SDS011;3174;53.486;9.568;2023-04-24T01:24:16;4.77;;;3.93;;
6282;SDS011;3174;53.486;9.568;2023-04-24T01:26:45;4.47;;;3.50;;
6282;SDS011;3174;53.486;9.568;2023-04-24T01:29:13;4.97;;;3.57;;
6282;SDS011;3174;53.486;9.568;2023-04-24T01:31:41;4.40;;;3.50;;
6282;SDS011;3174;53.486;9.568;2023-04-24T01:34:09;3.80;;;3.40;;
6282;SDS011;3174;53.486;9.568;2023-04-24T01:36:37;4.67;;;3.20;;
6282;SDS011;3174;53.486;9.568;2023-04-24T01:39:05;7.07;;;3.60;;
6282;SDS011;3174;53.486;9.568;2023-04-24T01:41:35;4.23;;;3.23;;
6282;SDS011;3174;53.486;9.568;2023-04-24T01:44:03;5.23;;;3.70;;
6282;SDS011;3174;53.486;9.568;2023-04-24T01:46:31;5.63;;;3.60;;
6282;SDS011;3174;53.486;9.568;2023-04-24T01:49:01;4.73;;;3.13;;
6282;SDS011;3174;53.486;9.568;2023-04-24T01:51:29;5.03;;;3.50;;
6282;SDS011;3174;53.486;9.568;2023-04-24T01:53:57;4.63;;;3.13;;
6282;SDS011;3174;53.486;9.568;2023-04-24T01:56:25;4.27;;;2.70;;
6282;SDS011;3174;53.486;9.568;2023-04-24T01:58:58;2.80;;;2.50;;
6282;SDS011;3174;53.486;9.568;2023-04-24T02:01:27;3.53;;;2.70;;
6282;SDS011;3174;53.486;9.568;2023-04-24T02:03:55;3.37;;;2.47;;
6282;SDS011;3174;53.486;9.568;2023-04-24T02:06:23;2.30;;;2.00;;
6282;SDS011;3174;53.486;9.568;2023-04-24T02:08:51;2.57;;;2.03;;
6282;SDS011;3174;53.486;9.568;2023-04-24T02:11:19;3.73;;;2.10;;
6282;SDS011;3174;53.486;9.568;2023-04-24T02:13:46;2.93;;;1.80;;
6282;SDS011;3174;53.486;9.568;2023-04-24T02:16:16;2.23;;;1.80;;
6282;SDS011;3174;53.486;9.568;2023-04-24T02:18:44;2.97;;;1.90;;
6282;SDS011;3174;53.486;9.568;2023-04-24T02:21:12;2.77;;;1.70;;
6282;SDS011;3174;53.486;9.568;2023-04-24T02:23:40;2.70;;;2.13;;
6282;SDS011;3174;53.486;9.568;2023-04-24T02:26:08;3.40;;;1.60;;
6282;SDS011;3174;53.486;9.568;2023-04-24T02:28:36;2.20;;;1.67;;
6282;SDS011;3174;53.486;9.568;2023-04-24T02:31:04;3.07;;;1.40;;
6282;SDS011;3174;53.486;9.568;2023-04-24T02:33:34;2.43;;;1.80;;
6282;SDS011;3174;53.486;9.568;2023-04-24T02:36:02;1.73;;;1.60;;
6282;SDS011;3174;53.486;9.568;2023-04-24T02:38:30;1.70;;;1.43;;
6282;SDS011;3174;53.486;9.568;2023-04-24T02:40:58;1.67;;;1.50;;
6282;SDS011;3174;53.486;9.568;2023-04-24T02:43:27;1.50;;;1.40;;
6282;SDS011;3174;53.486;9.568;2023-04-24T02:45:54;2.67;;;1.33;;
6282;SDS011;3174;53.486;9.568;2023-04-24T02:48:22;2.13;;;1.60;;
6282;SDS011;3174;53.486;9.568;2023-04-24T02:50:52;1.50;;;1.40;;
6282;SDS011;3174;53.486;9.568;2023-04-24T02:53:20;1.53;;;1.30;;
6282;SDS011;3174;53.486;9.568;2023-04-24T02:55:49;2.47;;;1.87;;
6282;SDS011;3174;53.486;9.568;2023-04-24T02:58:16;2.43;;;1.50;;
6282;SDS011;3174;53.486;9.568;2023-04-24T03:00:46;1.80;;;1.50;;
6282;SDS011;3174;53.486;9.568;2023-04-24T03:03:14;2.40;;;1.80;;
6282;SDS011;3174;53.486;9.568;2023-04-24T03:05:42;2.90;;;1.50;;
6282;SDS011;3174;53.486;9.568;2023-04-24T03:08:12;3.53;;;1.80;;
6282;SDS011;3174;53.486;9.568;2023-04-24T03:10:40;2.60;;;1.70;;
6282;SDS011;3174;53.486;9.568;2023-04-24T03:13:08;3.87;;;1.50;;
6282;SDS011;3174;53.486;9.568;2023-04-24T03:15:36;2.80;;;1.87;;
6282;SDS011;3174;53.486;9.568;2023-04-24T03:18:04;2.87;;;1.90;;
6282;SDS011;3174;53.486;9.568;2023-04-24T03:20:32;3.17;;;1.70;;
6282;SDS011;3174;53.486;9.568;2023-04-24T03:23:00;2.53;;;1.80;;
6282;SDS011;3174;53.486;9.568;2023-04-24T03:25:29;6.97;;;2.10;;
6282;SDS011;3174;53.486;9.568;2023-04-24T03:27:57;1.90;;;1.63;;
6282;SDS011;3174;53.486;9.568;2023-04-24T03:30:25;2.20;;;1.43;;
6282;SDS011;3174;53.486;9.568;2023-04-24T03:32:53;3.20;;;1.63;;
6282;SDS011;3174;53.486;9.568;2023-04-24T03:35:22;2.47;;;1.77;;
6282;SDS011;3174;53.486;9.568;2023-04-24T03:37:50;2.80;;;1.67;;
6282;SDS011;3174;53.486;9.568;2023-04-24T03:40:18;1.73;;;1.50;;
6282;SDS011;3174;53.486;9.568;2023-04-24T03:42:47;2.97;;;1.50;;
6282;SDS011;3174;53.486;9.568;2023-04-24T03:45:15;1.87;;;1.60;;
6282;SDS011;3174;53.486;9.568;2023-04-24T03:47:43;4.80;;;1.93;;
6282;SDS011;3174;53.486;9.568;2023-04-24T03:50:11;2.60;;;1.90;;
6282;SDS011;3174;53.486;9.568;2023-04-24T03:52:39;2.50;;;2.00;;
6282;SDS011;3174;53.486;9.568;2023-04-24T03:55:07;2.07;;;1.70;;
6282;SDS011;3174;53.486;9.568;2023-04-24T03:57:39;3.47;;;1.93;;
6282;SDS011;3174;53.486;9.568;2023-04-24T04:00:09;2.23;;;1.73;;
6282;SDS011;3174;53.486;9.568;2023-04-24T04:02:38;1.90;;;1.70;;
6282;SDS011;3174;53.486;9.568;2023-04-24T04:05:06;1.40;;;1.30;;
6282;SDS011;3174;53.486;9.568;2023-04-24T04:07:35;1.70;;;1.57;;
6282;SDS011;3174;53.486;9.568;2023-04-24T04:10:04;1.90;;;1.70;;
6282;SDS011;3174;53.486;9.568;2023-04-24T04:12:33;2.23;;;1.63;;
6282;SDS011;3174;53.486;9.568;2023-04-24T04:15:02;1.90;;;1.63;;
6282;SDS011;3174;53.486;9.568;2023-04-24T04:17:32;1.93;;;1.63;;
6282;SDS011;3174;53.486;9.568;2023-04-24T04:20:00;2.40;;;1.50;;
6282;SDS011;3174;53.486;9.568;2023-04-24T04:22:31;1.60;;;1.50;;
6282;SDS011;3174;53.486;9.568;2023-04-24T04:24:59;2.03;;;1.70;;
6282;SDS011;3174;53.486;9.568;2023-04-24T04:27:27;2.33;;;1.80;;
6282;SDS011;3174;53.486;9.568;2023-04-24T04:29:58;2.40;;;1.50;;
6282;SDS011;3174;53.486;9.568;2023-04-24T04:32:27;1.63;;;1.53;;
6282;SDS011;3174;53.486;9.568;2023-04-24T04:34:57;1.70;;;1.30;;
6282;SDS011;3174;53.486;9.568;2023-04-24T04:37:24;1.93;;;1.40;;
6282;SDS011;3174;53.486;9.568;2023-04-24T04:39:52;3.27;;;1.70;;
6282;SDS011;3174;53.486;9.568;2023-04-24T04:42:20;2.27;;;1.70;;
6282;SDS011;3174;53.486;9.568;2023-04-24T04:44:50;1.90;;;1.50;;
6282;SDS011;3174;53.486;9.568;2023-04-24T04:47:17;4.17;;;1.60;;
6282;SDS011;3174;53.486;9.568;2023-04-24T04:49:46;1.90;;;1.40;;
6282;SDS011;3174;53.486;9.568;2023-04-24T04:52:15;1.90;;;1.60;;
6282;SDS011;3174;53.486;9.568;2023-04-24T04:54:44;1.20;;;1.10;;
6282;SDS011;3174;53.486;9.568;2023-04-24T04:57:12;2.10;;;1.20;;
6282;SDS011;3174;53.486;9.568;2023-04-24T04:59:40;1.73;;;1.33;;
6282;SDS011;3174;53.486;9.568;2023-04-24T05:02:08;1.80;;;1.40;;
6282;SDS011;3174;53.486;9.568;2023-04-24T05:04:36;1.70;;;1.23;;
6282;SDS011;3174;53.486;9.568;2023-04-24T05:07:05;2.43;;;1.30;;
6282;SDS011;3174;53.486;9.568;2023-04-24T05:09:34;1.97;;;1.80;;
6282;SDS011;3174;53.486;9.568;2023-04-24T05:12:02;2.83;;;1.10;;
6282;SDS011;3174;53.486;9.568;2023-04-24T05:14:30;1.23;;;1.10;;
6282;SDS011;3174;53.486;9.568;2023-04-24T05:16:58;2.23;;;1.30;;
6282;SDS011;3174;53.486;9.568;2023-04-24T05:19:27;1.37;;;1.20;;
6282;SDS011;3174;53.486;9.568;2023-04-24T05:21:55;1.80;;;1.30;;
6282;SDS011;3174;53.486;9.568;2023-04-24T05:24:23;1.20;;;1.10;;
6282;SDS011;3174;53.486;9.568;2023-04-24T05:26:52;1.93;;;1.20;;
6282;SDS011;3174;53.486;9.568;2023-04-24T05:29:20;1.43;;;1.20;;
6282;SDS011;3174;53.486;9.568;2023-04-24T05:31:48;1.10;;;1.00;;
6282;SDS011;3174;53.486;9.568;2023-04-24T05:34:16;1.20;;;1.10;;
6282;SDS011;3174;53.486;9.568;2023-04-24T05:36:44;1.50;;;1.30;;
6282;SDS011;3174;53.486;9.568;2023-04-24T05:39:12;1.27;;;1.17;;
6282;SDS011;3174;53.486;9.568;2023-04-24T05:41:41;1.90;;;1.40;;
6282;SDS011;3174;53.486;9.568;2023-04-24T05:44:10;3.63;;;1.30;;
6282;SDS011;3174;53.486;9.568;2023-04-24T05:46:38;1.33;;;1.20;;
6282;SDS011;3174;53.486;9.568;2023-04-24T05:49:06;1.83;;;1.20;;
6282;SDS011;3174;53.486;9.568;2023-04-24T05:51:34;2.17;;;1.50;;
6282;SDS011;3174;53.486;9.568;2023-04-24T05:54:02;3.23;;;1.40;;
6282;SDS011;3174;53.486;9.568;2023-04-24T05:56:30;1.70;;;1.50;;
6282;SDS011;3174;53.486;9.568;2023-04-24T05:58:58;1.77;;;1.50;;
6282;SDS011;3174;53.486;9.568;2023-04-24T06:01:27;1.80;;;1.50;;
6282;SDS011;3174;53.486;9.568;2023-04-24T06:03:55;2.20;;;1.23;;
6282;SDS011;3174;53.486;9.568;2023-04-24T06:06:24;1.70;;;1.50;;
6282;SDS011;3174;53.486;9.568;2023-04-24T06:08:53;4.00;;;1.83;;
6282;SDS011;3174;53.486;9.568;2023-04-24T06:11:21;2.50;;;1.67;;
6282;SDS011;3174;53.486;9.568;2023-04-24T06:13:51;2.57;;;2.37;;
6282;SDS011;3174;53.486;9.568;2023-04-24T06:16:19;3.73;;;1.83;;
6282;SDS011;3174;53.486;9.568;2023-04-24T06:18:48;3.00;;;1.80;;
6282;SDS011;3174;53.486;9.568;2023-04-24T06:21:16;2.63;;;1.40;;
6282;SDS011;3174;53.486;9.568;2023-04-24T06:23:44;3.20;;;1.83;;
6282;SDS011;3174;53.486;9.568;2023-04-24T06:26:15;2.23;;;1.70;;
6282;SDS011;3174;53.486;9.568;2023-04-24T06:28:43;3.77;;;2.27;;
6282;SDS011;3174;53.486;9.568;2023-04-24T06:31:11;2.47;;;2.10;;
6282;SDS011;3174;53.486;9.568;2023-04-24T06:33:42;3.27;;;2.07;;
6282;SDS011;3174;53.486;9.568;2023-04-24T06:36:11;3.77;;;2.40;;
6282;SDS011;3174;53.486;9.568;2023-04-24T06:38:39;2.47;;;1.80;;
6282;SDS011;3174;53.486;9.568;2023-04-24T06:41:07;3.07;;;2.60;;
6282;SDS011;3174;53.486;9.568;2023-04-24T06:43:36;5.10;;;2.83;;
6282;SDS011;3174;53.486;9.568;2023-04-24T06:46:04;2.17;;;1.80;;
6282;SDS011;3174;53.486;9.568;2023-04-24T06:48:32;3.20;;;1.93;;
6282;SDS011;3174;53.486;9.568;2023-04-24T06:51:00;3.20;;;2.20;;
6282;SDS011;3174;53.486;9.568;2023-04-24T06:53:30;4.10;;;2.70;;
6282;SDS011;3174;53.486;9.568;2023-04-24T06:55:58;3.87;;;2.80;;
6282;SDS011;3174;53.486;9.568;2023-04-24T06:58:26;3.80;;;2.63;;
6282;SDS011;3174;53.486;9.568;2023-04-24T07:00:53;4.60;;;2.87;;
6282;SDS011;3174;53.486;9.568;2023-04-24T07:03:21;3.37;;;2.67;;
6282;SDS011;3174;53.486;9.568;2023-04-24T07:05:50;3.80;;;2.63;;
6282;SDS011;3174;53.486;9.568;2023-04-24T07:08:19;3.33;;;2.80;;
6282;SDS011;3174;53.486;9.568;2023-04-24T07:10:50;3.30;;;2.60;;
6282;SDS011;3174;53.486;9.568;2023-04-24T07:13:18;5.00;;;3.03;;
6282;SDS011;3174;53.486;9.568;2023-04-24T07:15:46;3.70;;;3.20;;
6282;SDS011;3174;53.486;9.568;2023-04-24T07:18:16;4.47;;;3.10;;
6282;SDS011;3174;53.486;9.568;2023-04-24T07:20:44;5.00;;;2.77;;
6282;SDS011;3174;53.486;9.568;2023-04-24T07:23:12;3.07;;;2.77;;
6282;SDS011;3174;53.486;9.568;2023-04-24T07:25:40;3.73;;;3.10;;
6282;SDS011;3174;53.486;9.568;2023-04-24T07:28:10;5.17;;;2.57;;
6282;SDS011;3174;53.486;9.568;2023-04-24T07:30:38;3.20;;;2.57;;
6282;SDS011;3174;53.486;9.568;2023-04-24T07:33:06;3.13;;;2.83;;
6282;SDS011;3174;53.486;9.568;2023-04-24T07:35:34;4.40;;;3.33;;
6282;SDS011;3174;53.486;9.568;2023-04-24T07:38:02;3.90;;;3.27;;
6282;SDS011;3174;53.486;9.568;2023-04-24T07:40:30;3.73;;;3.03;;
6282;SDS011;3174;53.486;9.568;2023-04-24T07:42:58;4.57;;;3.70;;
6282;SDS011;3174;53.486;9.568;2023-04-24T07:45:28;5.63;;;3.17;;
6282;SDS011;3174;53.486;9.568;2023-04-24T07:47:57;3.70;;;3.10;;
6282;SDS011;3174;53.486;9.568;2023-04-24T07:50:25;3.47;;;2.90;;
6282;SDS011;3174;53.486;9.568;2023-04-24T07:52:53;3.97;;;2.60;;
6282;SDS011;3174;53.486;9.568;2023-04-24T07:55:21;4.47;;;2.93;;
6282;SDS011;3174;53.486;9.568;2023-04-24T07:57:53;4.43;;;3.07;;
6282;SDS011;3174;53.486;9.568;2023-04-24T08:00:21;4.80;;;3.20;;
6282;SDS011;3174;53.486;9.568;2023-04-24T08:02:50;4.23;;;3.60;;
6282;SDS011;3174;53.486;9.568;2023-04-24T08:05:18;20.43;;;9.17;;
6282;SDS011;3174;53.486;9.568;2023-04-24T08:07:47;6.13;;;3.33;;
6282;SDS011;3174;53.486;9.568;2023-04-24T08:10:16;7.57;;;4.13;;
6282;SDS011;3174;53.486;9.568;2023-04-24T08:12:44;11.70;;;6.03;;
6282;SDS011;3174;53.486;9.568;2023-04-24T08:15:12;5.80;;;3.43;;
6282;SDS011;3174;53.486;9.568;2023-04-24T08:17:40;10.97;;;6.37;;
6282;SDS011;3174;53.486;9.568;2023-04-24T08:20:10;5.73;;;4.60;;
6282;SDS011;3174;53.486;9.568;2023-04-24T08:22:40;6.83;;;4.50;;
6282;SDS011;3174;53.486;9.568;2023-04-24T08:25:08;6.73;;;4.43;;
6282;SDS011;3174;53.486;9.568;2023-04-24T08:27:36;4.90;;;3.93;;
6282;SDS011;3174;53.486;9.568;2023-04-24T08:30:05;6.67;;;4.90;;
6282;SDS011;3174;53.486;9.568;2023-04-24T08:32:34;5.97;;;3.70;;
6282;SDS011;3174;53.486;9.568;2023-04-24T08:35:02;6.27;;;4.17;;
6282;SDS011;3174;53.486;9.568;2023-04-24T08:37:32;5.60;;;4.60;;
6282;SDS011;3174;53.486;9.568;2023-04-24T08:40:00;6.30;;;4.73;;
6282;SDS011;3174;53.486;9.568;2023-04-24T08:42:28;4.90;;;4.03;;
6282;SDS011;3174;53.486;9.568;2023-04-24T08:44:59;5.53;;;4.03;;
6282;SDS011;3174;53.486;9.568;2023-04-24T08:47:28;5.03;;;4.00;;
6282;SDS011;3174;53.486;9.568;2023-04-24T08:49:57;5.00;;;3.87;;
6282;SDS011;3174;53.486;9.568;2023-04-24T08:52:29;5.67;;;3.67;;
6282;SDS011;3174;53.486;9.568;2023-04-24T08:54:58;5.93;;;4.17;;
6282;SDS011;3174;53.486;9.568;2023-04-24T08:57:27;5.80;;;3.90;;
6282;SDS011;3174;53.486;9.568;2023-04-24T08:59:56;4.53;;;3.43;;
6282;SDS011;3174;53.486;9.568;2023-04-24T09:02:24;4.17;;;3.40;;
6282;SDS011;3174;53.486;9.568;2023-04-24T09:04:53;4.87;;;3.83;;
6282;SDS011;3174;53.486;9.568;2023-04-24T09:07:21;4.37;;;3.30;;
6282;SDS011;3174;53.486;9.568;2023-04-24T09:09:50;6.20;;;3.77;;
6282;SDS011;3174;53.486;9.568;2023-04-24T09:12:19;5.37;;;3.80;;
6282;SDS011;3174;53.486;9.568;2023-04-24T09:14:48;6.90;;;4.10;;
6282;SDS011;3174;53.486;9.568;2023-04-24T09:17:17;5.23;;;4.47;;
6282;SDS011;3174;53.486;9.568;2023-04-24T09:19:45;6.63;;;4.03;;
6282;SDS011;3174;53.486;9.568;2023-04-24T09:22:13;5.77;;;4.43;;
6282;SDS011;3174;53.486;9.568;2023-04-24T09:24:41;5.87;;;4.43;;
6282;SDS011;3174;53.486;9.568;2023-04-24T09:27:10;4.67;;;4.00;;
6282;SDS011;3174;53.486;9.568;2023-04-24T09:29:40;5.43;;;4.40;;
6282;SDS011;3174;53.486;9.568;2023-04-24T09:32:21;5.60;;;4.20;;
6282;SDS011;3174;53.486;9.568;2023-04-24T09:35:04;6.83;;;4.20;;
6282;SDS011;3174;53.486;9.568;2023-04-24T09:37:34;7.30;;;4.73;;
6282;SDS011;3174;53.486;9.568;2023-04-24T09:40:13;5.90;;;4.13;;
6282;SDS011;3174;53.486;9.568;2023-04-24T09:42:45;5.80;;;4.17;;
6282;SDS011;3174;53.486;9.568;2023-04-24T09:45:15;6.13;;;4.70;;
6282;SDS011;3174;53.486;9.568;2023-04-24T09:47:44;6.37;;;4.67;;
6282;SDS011;3174;53.486;9.568;2023-04-24T09:50:12;5.57;;;4.63;;
6282;SDS011;3174;53.486;9.568;2023-04-24T09:52:43;6.67;;;4.83;;
6282;SDS011;3174;53.486;9.568;2023-04-24T09:55:16;7.50;;;5.00;;
6282;SDS011;3174;53.486;9.568;2023-04-24T09:57:47;7.37;;;5.13;;
6282;SDS011;3174;53.486;9.568;2023-04-24T10:00:23;9.00;;;5.50;;
6282;SDS011;3174;53.486;9.568;2023-04-24T10:02:56;6.83;;;4.67;;
6282;SDS011;3174;53.486;9.568;2023-04-24T10:05:26;5.80;;;4.20;;
6282;SDS011;3174;53.486;9.568;2023-04-24T10:07:56;7.93;;;5.53;;
6282;SDS011;3174;53.486;9.568;2023-04-24T10:10:25;7.33;;;5.40;;
6282;SDS011;3174;53.486;9.568;2023-04-24T10:12:53;7.37;;;5.73;;
6282;SDS011;3174;53.486;9.568;2023-04-24T10:15:23;8.00;;;5.57;;
6282;SDS011;3174;53.486;9.568;2023-04-24T10:17:51;7.60;;;5.80;;
6282;SDS011;3174;53.486;9.568;2023-04-24T10:20:20;8.53;;;5.47;;
6282;SDS011;3174;53.486;9.568;2023-04-24T10:22:49;10.87;;;5.47;;
6282;SDS011;3174;53.486;9.568;2023-04-24T10:25:19;10.60;;;6.00;;
6282;SDS011;3174;53.486;9.568;2023-04-24T10:27:48;9.10;;;5.77;;
6282;SDS011;3174;53.486;9.568;2023-04-24T10:30:17;8.27;;;6.03;;
6282;SDS011;3174;53.486;9.568;2023-04-24T10:32:47;9.13;;;6.77;;
6282;SDS011;3174;53.486;9.568;2023-04-24T10:35:15;9.17;;;6.20;;
6282;SDS011;3174;53.486;9.568;2023-04-24T10:37:47;8.60;;;6.00;;
6282;SDS011;3174;53.486;9.568;2023-04-24T10:40:17;11.40;;;6.50;;
6282;SDS011;3174;53.486;9.568;2023-04-24T10:42:49;7.90;;;6.10;;
6282;SDS011;3174;53.486;9.568;2023-04-24T10:45:23;11.37;;;6.20;;
6282;SDS011;3174;53.486;9.568;2023-04-24T10:47:54;10.00;;;6.67;;
6282;SDS011;3174;53.486;9.568;2023-04-24T10:50:42;10.53;;;6.93;;
6282;SDS011;3174;53.486;9.568;2023-04-24T10:53:15;9.80;;;6.87;;
6282;SDS011;3174;53.486;9.568;2023-04-24T10:55:47;15.67;;;6.73;;
6282;SDS011;3174;53.486;9.568;2023-04-24T10:58:17;9.50;;;6.37;;
6282;SDS011;3174;53.486;9.568;2023-04-24T11:00:55;9.70;;;6.13;;
6282;SDS011;3174;53.486;9.568;2023-04-24T11:03:27;8.50;;;6.43;;
6282;SDS011;3174;53.486;9.568;2023-04-24T11:05:57;10.83;;;6.27;;
6282;SDS011;3174;53.486;9.568;2023-04-24T11:08:30;10.27;;;6.70;;
6282;SDS011;3174;53.486;9.568;2023-04-24T11:11:08;7.60;;;6.10;;
6282;SDS011;3174;53.486;9.568;2023-04-24T11:16:33;8.37;;;5.73;;
6282;SDS011;3174;53.486;9.568;2023-04-24T11:19:04;8.43;;;6.13;;
6282;SDS011;3174;53.486;9.568;2023-04-24T11:21:41;7.67;;;5.37;;
6282;SDS011;3174;53.486;9.568;2023-04-24T11:24:29;8.17;;;6.20;;
6282;SDS011;3174;53.486;9.568;2023-04-24T11:27:00;7.37;;;5.67;;
6282;SDS011;3174;53.486;9.568;2023-04-24T11:29:41;8.00;;;5.80;;
6282;SDS011;3174;53.486;9.568;2023-04-24T11:32:17;6.90;;;5.43;;
6282;SDS011;3174;53.486;9.568;2023-04-24T11:34:51;8.30;;;5.23;;
6282;SDS011;3174;53.486;9.568;2023-04-24T11:37:19;7.10;;;5.23;;
6282;SDS011;3174;53.486;9.568;2023-04-24T11:39:50;6.87;;;5.10;;
6282;SDS011;3174;53.486;9.568;2023-04-24T11:42:19;7.73;;;4.73;;
6282;SDS011;3174;53.486;9.568;2023-04-24T11:44:48;6.57;;;5.17;;
6282;SDS011;3174;53.486;9.568;2023-04-24T11:47:17;8.10;;;5.20;;
6282;SDS011;3174;53.486;9.568;2023-04-24T11:49:45;8.93;;;4.40;;
6282;SDS011;3174;53.486;9.568;2023-04-24T11:52:16;6.93;;;4.90;;
6282;SDS011;3174;53.486;9.568;2023-04-24T11:54:47;7.10;;;4.47;;
6282;SDS011;3174;53.486;9.568;2023-04-24T11:57:16;6.00;;;4.37;;
6282;SDS011;3174;53.486;9.568;2023-04-24T11:59:47;5.90;;;4.73;;
6282;SDS011;3174;53.486;9.568;2023-04-24T12:02:21;7.57;;;4.90;;
6282;SDS011;3174;53.486;9.568;2023-04-24T12:04:51;6.73;;;4.10;;
6282;SDS011;3174;53.486;9.568;2023-04-24T12:07:21;4.00;;;3.17;;
6282;SDS011;3174;53.486;9.568;2023-04-24T12:09:55;6.47;;;4.23;;
6282;SDS011;3174;53.486;9.568;2023-04-24T12:12:25;4.73;;;3.80;;
6282;SDS011;3174;53.486;9.568;2023-04-24T12:14:54;5.87;;;4.17;;
6282;SDS011;3174;53.486;9.568;2023-04-24T12:17:24;4.47;;;3.63;;
6282;SDS011;3174;53.486;9.568;2023-04-24T12:19:57;4.20;;;3.47;;
6282;SDS011;3174;53.486;9.568;2023-04-24T12:22:27;5.87;;;3.50;;
6282;SDS011;3174;53.486;9.568;2023-04-24T12:24:56;4.80;;;3.73;;
6282;SDS011;3174;53.486;9.568;2023-04-24T12:27:31;5.97;;;3.87;;
6282;SDS011;3174;53.486;9.568;2023-04-24T12:30:00;5.37;;;3.57;;
6282;SDS011;3174;53.486;9.568;2023-04-24T12:32:30;5.13;;;3.77;;
6282;SDS011;3174;53.486;9.568;2023-04-24T12:34:59;5.33;;;3.87;;
6282;SDS011;3174;53.486;9.568;2023-04-24T12:37:32;5.30;;;3.80;;
6282;SDS011;3174;53.486;9.568;2023-04-24T12:40:03;4.70;;;3.80;;
6282;SDS011;3174;53.486;9.568;2023-04-24T12:42:33;4.60;;;3.70;;
6282;SDS011;3174;53.486;9.568;2023-04-24T12:45:02;5.53;;;4.07;;
6282;SDS011;3174;53.486;9.568;2023-04-24T12:47:31;5.63;;;4.10;;
6282;SDS011;3174;53.486;9.568;2023-04-24T12:50:00;5.63;;;4.57;;
6282;SDS011;3174;53.486;9.568;2023-04-24T12:52:30;5.03;;;4.00;;
6282;SDS011;3174;53.486;9.568;2023-04-24T12:54:58;4.83;;;3.60;;
6282;SDS011;3174;53.486;9.568;2023-04-24T12:57:28;6.17;;;4.77;;
6282;SDS011;3174;53.486;9.568;2023-04-24T12:59:57;5.23;;;4.30;;
6282;SDS011;3174;53.486;9.568;2023-04-24T13:02:27;5.60;;;4.40;;
6282;SDS011;3174;53.486;9.568;2023-04-24T13:04:56;6.43;;;4.67;;
6282;SDS011;3174;53.486;9.568;2023-04-24T13:07:25;5.63;;;4.50;;
6282;SDS011;3174;53.486;9.568;2023-04-24T13:09:55;7.90;;;4.70;;
6282;SDS011;3174;53.486;9.568;2023-04-24T13:12:23;5.37;;;4.10;;
6282;SDS011;3174;53.486;9.568;2023-04-24T13:14:52;4.73;;;3.30;;
6282;SDS011;3174;53.486;9.568;2023-04-24T13:17:21;5.93;;;4.37;;
6282;SDS011;3174;53.486;9.568;2023-04-24T13:19:49;5.73;;;4.37;;
6282;SDS011;3174;53.486;9.568;2023-04-24T13:22:18;4.77;;;3.87;;
6282;SDS011;3174;53.486;9.568;2023-04-24T13:24:46;6.27;;;4.97;;
6282;SDS011;3174;53.486;9.568;2023-04-24T13:27:17;6.20;;;4.60;;
6282;SDS011;3174;53.486;9.568;2023-04-24T13:29:45;4.00;;;3.17;;
6282;SDS011;3174;53.486;9.568;2023-04-24T13:32:13;5.10;;;4.43;;
6282;SDS011;3174;53.486;9.568;2023-04-24T13:34:41;7.23;;;4.70;;
6282;SDS011;3174;53.486;9.568;2023-04-24T13:37:09;6.70;;;4.20;;
6282;SDS011;3174;53.486;9.568;2023-04-24T13:39:37;6.33;;;4.37;;
6282;SDS011;3174;53.486;9.568;2023-04-24T13:42:05;5.90;;;4.70;;
6282;SDS011;3174;53.486;9.568;2023-04-24T13:44:34;5.73;;;4.67;;
6282;SDS011;3174;53.486;9.568;2023-04-24T13:47:03;4.03;;;3.53;;
6282;SDS011;3174;53.486;9.568;2023-04-24T13:49:32;5.73;;;4.40;;
6282;SDS011;3174;53.486;9.568;2023-04-24T13:51:59;4.77;;;3.80;;
6282;SDS011;3174;53.486;9.568;2023-04-24T13:54:27;6.13;;;4.30;;
6282;SDS011;3174;53.486;9.568;2023-04-24T13:56:57;5.23;;;4.23;;
6282;SDS011;3174;53.486;9.568;2023-04-24T13:59:25;6.50;;;4.67;;
6282;SDS011;3174;53.486;9.568;2023-04-24T14:01:54;6.07;;;3.67;;
6282;SDS011;3174;53.486;9.568;2023-04-24T14:04:23;7.73;;;4.47;;
6282;SDS011;3174;53.486;9.568;2023-04-24T14:06:52;5.63;;;4.00;;
6282;SDS011;3174;53.486;9.568;2023-04-24T14:09:20;5.13;;;4.13;;
6282;SDS011;3174;53.486;9.568;2023-04-24T14:11:48;6.37;;;4.80;;
6282;SDS011;3174;53.486;9.568;2023-04-24T14:14:15;4.70;;;3.67;;
6282;SDS011;3174;53.486;9.568;2023-04-24T14:16:43;4.73;;;4.00;;
6282;SDS011;3174;53.486;9.568;2023-04-24T14:19:13;5.13;;;4.00;;
6282;SDS011;3174;53.486;9.568;2023-04-24T14:21:41;6.47;;;4.30;;
6282;SDS011;3174;53.486;9.568;2023-04-24T14:24:09;4.77;;;3.90;;
6282;SDS011;3174;53.486;9.568;2023-04-24T14:26:37;5.40;;;4.07;;
6282;SDS011;3174;53.486;9.568;2023-04-24T14:29:05;5.00;;;3.67;;
6282;SDS011;3174;53.486;9.568;2023-04-24T14:31:40;8.10;;;4.70;;
6282;SDS011;3174;53.486;9.568;2023-04-24T14:34:08;5.40;;;4.47;;
6282;SDS011;3174;53.486;9.568;2023-04-24T14:36:38;4.10;;;3.20;;
6282;SDS011;3174;53.486;9.568;2023-04-24T14:39:06;3.43;;;2.60;;
6282;SDS011;3174;53.486;9.568;2023-04-24T14:41:34;3.70;;;2.37;;
6282;SDS011;3174;53.486;9.568;2023-04-24T14:44:03;2.23;;;1.90;;
6282;SDS011;3174;53.486;9.568;2023-04-24T14:46:32;2.47;;;1.90;;
6282;SDS011;3174;53.486;9.568;2023-04-24T14:49:00;2.90;;;1.80;;
6282;SDS011;3174;53.486;9.568;2023-04-24T14:51:28;1.93;;;1.70;;
6282;SDS011;3174;53.486;9.568;2023-04-24T14:53:58;1.87;;;1.70;;
6282;SDS011;3174;53.486;9.568;2023-04-24T14:56:26;1.90;;;1.70;;
6282;SDS011;3174;53.486;9.568;2023-04-24T14:58:54;2.80;;;2.10;;
6282;SDS011;3174;53.486;9.568;2023-04-24T15:01:22;3.30;;;2.03;;
6282;SDS011;3174;53.486;9.568;2023-04-24T15:03:51;4.83;;;2.33;;
6282;SDS011;3174;53.486;9.568;2023-04-24T15:06:20;5.63;;;3.50;;
6282;SDS011;3174;53.486;9.568;2023-04-24T15:08:48;5.00;;;3.50;;
6282;SDS011;3174;53.486;9.568;2023-04-24T15:11:17;5.67;;;3.60;;
6282;SDS011;3174;53.486;9.568;2023-04-24T15:13:46;5.93;;;3.90;;
6282;SDS011;3174;53.486;9.568;2023-04-24T15:16:14;5.33;;;3.17;;
6282;SDS011;3174;53.486;9.568;2023-04-24T15:18:43;5.00;;;3.27;;
6282;SDS011;3174;53.486;9.568;2023-04-24T15:21:11;6.90;;;3.93;;
6282;SDS011;3174;53.486;9.568;2023-04-24T15:23:39;5.20;;;3.47;;
6282;SDS011;3174;53.486;9.568;2023-04-24T15:26:07;6.53;;;4.30;;
6282;SDS011;3174;53.486;9.568;2023-04-24T15:28:36;6.97;;;4.00;;